VOE2QE LPPR-LFRS
Flight info
| Callsign | VOE2QE |
|---|---|
| Flight time | 1h 16m |
| Altitude | 24000 |
| Route | TURON P600 ASDEB/N0450F360 DCT LOTEE DCT AZFIC DCT EPIXO |
| Aircraft | A320/M-SDE3FGHIRWY/LB1 |
Departure
| Time | 2026-05-07 10:30 |
|---|---|
| Airport | Francisco de Sá Carneiro Airport (LPPR) |
Arrival
| Time | 2026-05-07 11:46 |
|---|---|
| Airport | Nantes Atlantique Airport (LFRS) |
| Time | Latitude | Longitude | Altitude | Speed | Heading |
|---|---|---|---|---|---|
| 2026-05-07 10:02 | 41.23686 | -8.67249 | 243 ft | 0 kts | 79° |
| 2026-05-07 10:19 | 41.23686 | -8.67250 | 242 ft | 1 kts | 79° |
| 2026-05-07 10:20 | 41.23681 | -8.67281 | 242 ft | 4 kts | 73° |
| 2026-05-07 10:20 | 41.23671 | -8.67315 | 242 ft | 4 kts | 59° |
| 2026-05-07 10:20 | 41.23655 | -8.67339 | 242 ft | 4 kts | 13° |
| 2026-05-07 10:20 | 41.23646 | -8.67340 | 242 ft | 0 kts | 349° |
| 2026-05-07 10:23 | 41.23669 | -8.67347 | 242 ft | 8 kts | 346° |
| 2026-05-07 10:23 | 41.23720 | -8.67396 | 240 ft | 10 kts | 310° |
| 2026-05-07 10:23 | 41.23778 | -8.67464 | 237 ft | 13 kts | 342° |
| 2026-05-07 10:24 | 41.23885 | -8.67493 | 237 ft | 15 kts | 348° |
| 2026-05-07 10:24 | 41.23984 | -8.67518 | 237 ft | 13 kts | 349° |
| 2026-05-07 10:24 | 41.24074 | -8.67542 | 237 ft | 16 kts | 348° |
| 2026-05-07 10:24 | 41.24203 | -8.67577 | 236 ft | 17 kts | 345° |
| 2026-05-07 10:25 | 41.24292 | -8.67684 | 231 ft | 20 kts | 315° |
| 2026-05-07 10:25 | 41.24435 | -8.67742 | 222 ft | 23 kts | 348° |
| 2026-05-07 10:25 | 41.24599 | -8.67787 | 214 ft | 25 kts | 348° |
| 2026-05-07 10:25 | 41.24769 | -8.67838 | 206 ft | 25 kts | 339° |
| 2026-05-07 10:26 | 41.24923 | -8.67926 | 197 ft | 24 kts | 348° |
| 2026-05-07 10:26 | 41.25097 | -8.67972 | 190 ft | 27 kts | 349° |
| 2026-05-07 10:26 | 41.25290 | -8.68021 | 182 ft | 30 kts | 349° |
| 2026-05-07 10:26 | 41.25479 | -8.68069 | 174 ft | 27 kts | 349° |
| 2026-05-07 10:27 | 41.25602 | -8.68132 | 170 ft | 15 kts | 302° |
| 2026-05-07 10:27 | 41.25605 | -8.68201 | 171 ft | 0 kts | 259° |
| 2026-05-07 10:28 | 41.25605 | -8.68203 | 171 ft | 2 kts | 259° |
| 2026-05-07 10:28 | 41.25591 | -8.68287 | 174 ft | 11 kts | 252° |
| 2026-05-07 10:28 | 41.25510 | -8.68310 | 175 ft | 22 kts | 170° |
| 2026-05-07 10:29 | 41.25154 | -8.68217 | 200 ft | 84 kts | 169° |
| 2026-05-07 10:29 | 41.24391 | -8.68017 | 213 ft | 137 kts | 168° |
| 2026-05-07 10:29 | 41.23312 | -8.67723 | 315 ft | 171 kts | 172° |
| 2026-05-07 10:30 | 41.20972 | -8.67187 | 1618 ft | 175 kts | 172° |
| 2026-05-07 10:30 | 41.19749 | -8.66826 | 2093 ft | 185 kts | 168° |
| 2026-05-07 10:30 | 41.18468 | -8.66470 | 2608 ft | 190 kts | 169° |
| 2026-05-07 10:30 | 41.17154 | -8.66118 | 3127 ft | 196 kts | 169° |
| 2026-05-07 10:31 | 41.15767 | -8.65748 | 3466 ft | 213 kts | 168° |
| 2026-05-07 10:31 | 41.14255 | -8.65333 | 3804 ft | 232 kts | 169° |
| 2026-05-07 10:31 | 41.12632 | -8.64983 | 4326 ft | 246 kts | 171° |
| 2026-05-07 10:31 | 41.10883 | -8.64663 | 4933 ft | 259 kts | 180° |
| 2026-05-07 10:32 | 41.09111 | -8.65140 | 5727 ft | 264 kts | 203° |
| 2026-05-07 10:32 | 41.07619 | -8.66581 | 6535 ft | 270 kts | 228° |
| 2026-05-07 10:32 | 41.06744 | -8.68799 | 7309 ft | 278 kts | 255° |
| 2026-05-07 10:32 | 41.06727 | -8.71365 | 8068 ft | 285 kts | 282° |
| 2026-05-07 10:33 | 41.07632 | -8.73714 | 8839 ft | 291 kts | 311° |
| 2026-05-07 10:33 | 41.09285 | -8.75240 | 9599 ft | 295 kts | 341° |
| 2026-05-07 10:33 | 41.11314 | -8.75565 | 10276 ft | 300 kts | 5° |
| 2026-05-07 10:33 | 41.13473 | -8.75224 | 10447 ft | 324 kts | 8° |
| 2026-05-07 10:34 | 41.15782 | -8.74765 | 10586 ft | 347 kts | 9° |
| 2026-05-07 10:34 | 41.18212 | -8.74245 | 10984 ft | 359 kts | 9° |
| 2026-05-07 10:34 | 41.20689 | -8.73714 | 11621 ft | 363 kts | 9° |
| 2026-05-07 10:34 | 41.23197 | -8.73188 | 12258 ft | 367 kts | 8° |
| 2026-05-07 10:35 | 41.25730 | -8.72671 | 12912 ft | 370 kts | 8° |
| 2026-05-07 10:35 | 41.28292 | -8.72158 | 13566 ft | 374 kts | 8° |
| 2026-05-07 10:35 | 41.30877 | -8.71645 | 14152 ft | 377 kts | 8° |
| 2026-05-07 10:35 | 41.33486 | -8.71129 | 14703 ft | 381 kts | 8° |
| 2026-05-07 10:36 | 41.36128 | -8.70604 | 15264 ft | 384 kts | 8° |
| 2026-05-07 10:36 | 41.38753 | -8.70081 | 15867 ft | 386 kts | 8° |
| 2026-05-07 10:36 | 41.41421 | -8.69547 | 16449 ft | 389 kts | 7° |
| 2026-05-07 10:36 | 41.44106 | -8.69010 | 17036 ft | 392 kts | 8° |
| 2026-05-07 10:37 | 41.46810 | -8.68467 | 17624 ft | 395 kts | 7° |
| 2026-05-07 10:37 | 41.49537 | -8.67920 | 18188 ft | 398 kts | 7° |
| 2026-05-07 10:37 | 41.52288 | -8.67368 | 18699 ft | 400 kts | 7° |
| 2026-05-07 10:37 | 41.54155 | -8.66992 | 19042 ft | 402 kts | 7° |
| 2026-05-07 10:38 | 41.56894 | -8.66442 | 19556 ft | 404 kts | 7° |
| 2026-05-07 10:38 | 41.59678 | -8.65883 | 20064 ft | 406 kts | 7° |
| 2026-05-07 10:38 | 41.62463 | -8.65324 | 20555 ft | 408 kts | 7° |
| 2026-05-07 10:38 | 41.65295 | -8.64754 | 21033 ft | 410 kts | 7° |
| 2026-05-07 10:39 | 41.68123 | -8.64186 | 21498 ft | 412 kts | 7° |
| 2026-05-07 10:39 | 41.70968 | -8.63614 | 21940 ft | 415 kts | 7° |
| 2026-05-07 10:39 | 41.73829 | -8.63038 | 22361 ft | 417 kts | 7° |
| 2026-05-07 10:39 | 41.76710 | -8.62457 | 22796 ft | 419 kts | 7° |
| 2026-05-07 10:40 | 41.79599 | -8.61872 | 23206 ft | 421 kts | 7° |
| 2026-05-07 10:40 | 41.82505 | -8.61284 | 23591 ft | 423 kts | 7° |
| 2026-05-07 10:40 | 41.85425 | -8.60694 | 23847 ft | 425 kts | 7° |
| 2026-05-07 10:40 | 41.88361 | -8.60100 | 23912 ft | 430 kts | 7° |
| 2026-05-07 10:41 | 41.91332 | -8.59496 | 23915 ft | 434 kts | 7° |
| 2026-05-07 10:41 | 41.94325 | -8.58883 | 23915 ft | 435 kts | 7° |
| 2026-05-07 10:41 | 41.97321 | -8.58272 | 23915 ft | 435 kts | 7° |
| 2026-05-07 10:41 | 42.00314 | -8.57665 | 23915 ft | 435 kts | 7° |
| 2026-05-07 10:42 | 42.03312 | -8.57055 | 23912 ft | 435 kts | 7° |
| 2026-05-07 10:42 | 42.06308 | -8.56443 | 23909 ft | 435 kts | 7° |
| 2026-05-07 10:42 | 42.09310 | -8.55862 | 23913 ft | 435 kts | 6° |
| 2026-05-07 10:42 | 42.12313 | -8.55355 | 23909 ft | 435 kts | 5° |
| 2026-05-07 10:43 | 42.15325 | -8.54897 | 23907 ft | 435 kts | 5° |
| 2026-05-07 10:43 | 42.18337 | -8.54460 | 23904 ft | 435 kts | 5° |
| 2026-05-07 10:43 | 42.21346 | -8.54023 | 23916 ft | 435 kts | 5° |
| 2026-05-07 10:43 | 42.24357 | -8.53570 | 23914 ft | 435 kts | 5° |
| 2026-05-07 10:44 | 42.27367 | -8.53102 | 23914 ft | 435 kts | 5° |
| 2026-05-07 10:44 | 42.30331 | -8.52627 | 23913 ft | 435 kts | 6° |
| 2026-05-07 10:44 | 42.33345 | -8.52137 | 23910 ft | 435 kts | 5° |
| 2026-05-07 10:44 | 42.36354 | -8.51645 | 23909 ft | 435 kts | 6° |
| 2026-05-07 10:45 | 42.39369 | -8.51154 | 23908 ft | 435 kts | 5° |
| 2026-05-07 10:45 | 42.42379 | -8.50669 | 23906 ft | 436 kts | 5° |
| 2026-05-07 10:45 | 42.45388 | -8.50189 | 23902 ft | 435 kts | 5° |
| 2026-05-07 10:45 | 42.48375 | -8.49501 | 23899 ft | 436 kts | 13° |
| 2026-05-07 10:46 | 42.51246 | -8.48157 | 23892 ft | 438 kts | 23° |
| 2026-05-07 10:46 | 42.53922 | -8.46169 | 23891 ft | 440 kts | 32° |
| 2026-05-07 10:46 | 42.56333 | -8.43607 | 23887 ft | 441 kts | 40° |
| 2026-05-07 10:46 | 42.58636 | -8.40872 | 23887 ft | 441 kts | 40° |
| 2026-05-07 10:47 | 42.60948 | -8.38131 | 23886 ft | 441 kts | 40° |
| 2026-05-07 10:47 | 42.63262 | -8.35389 | 23886 ft | 441 kts | 40° |
| 2026-05-07 10:47 | 42.65573 | -8.32652 | 23885 ft | 441 kts | 40° |
| 2026-05-07 10:47 | 42.67890 | -8.29905 | 23884 ft | 441 kts | 40° |
| 2026-05-07 10:48 | 42.70206 | -8.27157 | 23882 ft | 442 kts | 40° |
| 2026-05-07 10:48 | 42.72517 | -8.24410 | 23889 ft | 442 kts | 40° |
| 2026-05-07 10:48 | 42.74834 | -8.21651 | 23882 ft | 442 kts | 40° |
| 2026-05-07 10:48 | 42.77148 | -8.18891 | 23880 ft | 443 kts | 40° |
| 2026-05-07 10:49 | 42.79461 | -8.16130 | 23879 ft | 443 kts | 40° |
| 2026-05-07 10:49 | 42.81753 | -8.13394 | 23878 ft | 443 kts | 40° |
| 2026-05-07 10:49 | 42.84071 | -8.10623 | 23879 ft | 443 kts | 40° |
| 2026-05-07 10:49 | 42.86379 | -8.07862 | 23879 ft | 444 kts | 40° |
| 2026-05-07 10:50 | 42.88698 | -8.05086 | 23880 ft | 444 kts | 40° |
| 2026-05-07 10:50 | 42.91021 | -8.02300 | 23891 ft | 444 kts | 41° |
| 2026-05-07 10:50 | 42.93338 | -7.99518 | 23892 ft | 444 kts | 40° |
| 2026-05-07 10:50 | 42.95658 | -7.96729 | 23890 ft | 444 kts | 41° |
| 2026-05-07 10:51 | 42.97976 | -7.93940 | 23885 ft | 444 kts | 41° |
| 2026-05-07 10:51 | 43.00290 | -7.91152 | 23890 ft | 446 kts | 41° |
| 2026-05-07 10:51 | 43.02646 | -7.88309 | 23906 ft | 455 kts | 41° |
| 2026-05-07 10:51 | 43.05040 | -7.85414 | 23903 ft | 464 kts | 41° |
| 2026-05-07 10:52 | 43.07474 | -7.82468 | 23901 ft | 471 kts | 41° |
| 2026-05-07 10:52 | 43.09947 | -7.79472 | 23902 ft | 477 kts | 41° |
| 2026-05-07 10:52 | 43.12445 | -7.76445 | 23901 ft | 482 kts | 41° |
| 2026-05-07 10:52 | 43.14926 | -7.73437 | 23900 ft | 485 kts | 41° |
| 2026-05-07 10:53 | 43.17456 | -7.70367 | 23908 ft | 487 kts | 41° |
| 2026-05-07 10:53 | 43.19997 | -7.67279 | 23903 ft | 489 kts | 41° |
| 2026-05-07 10:53 | 43.22548 | -7.64173 | 23904 ft | 491 kts | 41° |
| 2026-05-07 10:53 | 43.25103 | -7.61064 | 23903 ft | 492 kts | 41° |
| 2026-05-07 10:54 | 43.27664 | -7.57945 | 23904 ft | 492 kts | 41° |
| 2026-05-07 10:54 | 43.30228 | -7.54818 | 23909 ft | 493 kts | 41° |
| 2026-05-07 10:54 | 43.32791 | -7.51688 | 23909 ft | 494 kts | 41° |
| 2026-05-07 10:54 | 43.35356 | -7.48548 | 23911 ft | 494 kts | 41° |
| 2026-05-07 10:55 | 43.37921 | -7.45401 | 23907 ft | 494 kts | 41° |
| 2026-05-07 10:55 | 43.40487 | -7.42251 | 23911 ft | 494 kts | 42° |
| 2026-05-07 10:55 | 43.43049 | -7.39100 | 23906 ft | 494 kts | 42° |
| 2026-05-07 10:55 | 43.45611 | -7.35948 | 23912 ft | 494 kts | 42° |
| 2026-05-07 10:56 | 43.48171 | -7.32802 | 23908 ft | 495 kts | 41° |
| 2026-05-07 10:56 | 43.50736 | -7.29647 | 23907 ft | 495 kts | 42° |
| 2026-05-07 10:56 | 43.53303 | -7.26487 | 23913 ft | 495 kts | 42° |
| 2026-05-07 10:56 | 43.55869 | -7.23320 | 23913 ft | 495 kts | 42° |
| 2026-05-07 10:57 | 43.58431 | -7.20151 | 23910 ft | 495 kts | 42° |
| 2026-05-07 10:57 | 43.60995 | -7.16974 | 23919 ft | 495 kts | 42° |
| 2026-05-07 10:57 | 43.63558 | -7.13797 | 23919 ft | 495 kts | 42° |
| 2026-05-07 10:57 | 43.66117 | -7.10618 | 23917 ft | 496 kts | 42° |
| 2026-05-07 10:58 | 43.68679 | -7.07429 | 23916 ft | 496 kts | 42° |
| 2026-05-07 10:58 | 43.71246 | -7.04229 | 23921 ft | 496 kts | 42° |
| 2026-05-07 10:58 | 43.73774 | -7.01075 | 23921 ft | 496 kts | 42° |
| 2026-05-07 10:58 | 43.76337 | -6.97879 | 23921 ft | 496 kts | 42° |
| 2026-05-07 10:59 | 43.78902 | -6.94676 | 23924 ft | 496 kts | 42° |
| 2026-05-07 10:59 | 43.81469 | -6.91470 | 23925 ft | 496 kts | 42° |
| 2026-05-07 10:59 | 43.84031 | -6.88266 | 23927 ft | 497 kts | 42° |
| 2026-05-07 10:59 | 43.86593 | -6.85057 | 23928 ft | 497 kts | 42° |
| 2026-05-07 11:00 | 43.89156 | -6.81841 | 23924 ft | 498 kts | 43° |
| 2026-05-07 11:00 | 43.91723 | -6.78616 | 23921 ft | 498 kts | 43° |
| 2026-05-07 11:00 | 43.94288 | -6.75387 | 23921 ft | 498 kts | 43° |
| 2026-05-07 11:00 | 43.96853 | -6.72147 | 23927 ft | 499 kts | 43° |
| 2026-05-07 11:01 | 43.99417 | -6.68906 | 23932 ft | 499 kts | 43° |
| 2026-05-07 11:01 | 44.01984 | -6.65663 | 23926 ft | 499 kts | 43° |
| 2026-05-07 11:01 | 44.04554 | -6.62419 | 23933 ft | 499 kts | 43° |
| 2026-05-07 11:01 | 44.07124 | -6.59175 | 23932 ft | 500 kts | 43° |
| 2026-05-07 11:02 | 44.09702 | -6.55916 | 23927 ft | 500 kts | 43° |
| 2026-05-07 11:02 | 44.12277 | -6.52652 | 23930 ft | 500 kts | 43° |
| 2026-05-07 11:02 | 44.14846 | -6.49387 | 23929 ft | 501 kts | 43° |
| 2026-05-07 11:02 | 44.17413 | -6.46113 | 23925 ft | 501 kts | 43° |
| 2026-05-07 11:03 | 44.19983 | -6.42830 | 23926 ft | 501 kts | 43° |
| 2026-05-07 11:03 | 44.22548 | -6.39556 | 23937 ft | 501 kts | 43° |
| 2026-05-07 11:03 | 44.25122 | -6.36270 | 23942 ft | 501 kts | 43° |
| 2026-05-07 11:03 | 44.27697 | -6.32982 | 23942 ft | 501 kts | 43° |
| 2026-05-07 11:04 | 44.30271 | -6.29692 | 23946 ft | 501 kts | 43° |
| 2026-05-07 11:04 | 44.32810 | -6.26446 | 23946 ft | 501 kts | 43° |
| 2026-05-07 11:04 | 44.35380 | -6.23155 | 23950 ft | 501 kts | 43° |
| 2026-05-07 11:04 | 44.37946 | -6.19862 | 23954 ft | 501 kts | 43° |
| 2026-05-07 11:05 | 44.40510 | -6.16558 | 23953 ft | 501 kts | 43° |
| 2026-05-07 11:05 | 44.43074 | -6.13247 | 23955 ft | 501 kts | 43° |
| 2026-05-07 11:05 | 44.45635 | -6.09943 | 23960 ft | 501 kts | 43° |
| 2026-05-07 11:05 | 44.48198 | -6.06636 | 23956 ft | 501 kts | 43° |
| 2026-05-07 11:06 | 44.50757 | -6.03330 | 23956 ft | 501 kts | 43° |
| 2026-05-07 11:06 | 44.53321 | -6.00010 | 23954 ft | 502 kts | 43° |
| 2026-05-07 11:06 | 44.55880 | -5.96691 | 23959 ft | 501 kts | 43° |
| 2026-05-07 11:06 | 44.58443 | -5.93363 | 23958 ft | 501 kts | 43° |
| 2026-05-07 11:07 | 44.61004 | -5.90033 | 23958 ft | 502 kts | 43° |
| 2026-05-07 11:07 | 44.63563 | -5.86702 | 23963 ft | 501 kts | 43° |
| 2026-05-07 11:07 | 44.66121 | -5.83372 | 23961 ft | 502 kts | 44° |
| 2026-05-07 11:07 | 44.68659 | -5.80007 | 24045 ft | 500 kts | 44° |
| 2026-05-07 11:08 | 44.71153 | -5.76620 | 24171 ft | 498 kts | 45° |
| 2026-05-07 11:08 | 44.73621 | -5.73215 | 24289 ft | 497 kts | 45° |
| 2026-05-07 11:08 | 44.76077 | -5.69801 | 24395 ft | 496 kts | 45° |
| 2026-05-07 11:08 | 44.78523 | -5.66392 | 24518 ft | 495 kts | 45° |
| 2026-05-07 11:09 | 44.80974 | -5.62989 | 24639 ft | 494 kts | 45° |
| 2026-05-07 11:09 | 44.83422 | -5.59608 | 24749 ft | 493 kts | 45° |
| 2026-05-07 11:09 | 44.85878 | -5.56230 | 24885 ft | 493 kts | 45° |
| 2026-05-07 11:09 | 44.88336 | -5.52855 | 25005 ft | 493 kts | 45° |
| 2026-05-07 11:10 | 44.90789 | -5.49487 | 25127 ft | 493 kts | 45° |
| 2026-05-07 11:10 | 44.93241 | -5.46108 | 25250 ft | 492 kts | 45° |
| 2026-05-07 11:10 | 44.95690 | -5.42721 | 25376 ft | 492 kts | 45° |
| 2026-05-07 11:10 | 44.98105 | -5.39372 | 25498 ft | 492 kts | 45° |
| 2026-05-07 11:11 | 45.00545 | -5.35982 | 25623 ft | 492 kts | 45° |
| 2026-05-07 11:11 | 45.02983 | -5.32588 | 25754 ft | 492 kts | 45° |
| 2026-05-07 11:11 | 45.05452 | -5.29145 | 25882 ft | 492 kts | 45° |
| 2026-05-07 11:11 | 45.07855 | -5.25798 | 26008 ft | 492 kts | 45° |
| 2026-05-07 11:12 | 45.10290 | -5.22403 | 26130 ft | 491 kts | 45° |
| 2026-05-07 11:12 | 45.12721 | -5.19004 | 26281 ft | 491 kts | 45° |
| 2026-05-07 11:12 | 45.15151 | -5.15598 | 26392 ft | 491 kts | 45° |
| 2026-05-07 11:12 | 45.17573 | -5.12202 | 26521 ft | 490 kts | 45° |
| 2026-05-07 11:13 | 45.20004 | -5.08798 | 26655 ft | 490 kts | 45° |
| 2026-05-07 11:13 | 45.22425 | -5.05400 | 26778 ft | 490 kts | 46° |
| 2026-05-07 11:13 | 45.24847 | -5.01997 | 26892 ft | 490 kts | 45° |
| 2026-05-07 11:13 | 45.27264 | -4.98595 | 27041 ft | 489 kts | 46° |
| 2026-05-07 11:14 | 45.29679 | -4.95193 | 27167 ft | 489 kts | 46° |
| 2026-05-07 11:14 | 45.32094 | -4.91787 | 27304 ft | 489 kts | 46° |
| 2026-05-07 11:14 | 45.34500 | -4.88383 | 27436 ft | 488 kts | 46° |
| 2026-05-07 11:14 | 45.36909 | -4.84971 | 27572 ft | 488 kts | 46° |
| 2026-05-07 11:15 | 45.39292 | -4.81593 | 28207 ft | 477 kts | 46° |
| 2026-05-07 11:15 | 45.41618 | -4.78302 | 28874 ft | 469 kts | 46° |
| 2026-05-07 11:15 | 45.43920 | -4.75036 | 29339 ft | 466 kts | 46° |
| 2026-05-07 11:15 | 45.46210 | -4.71781 | 29737 ft | 464 kts | 46° |
| 2026-05-07 11:16 | 45.48493 | -4.68530 | 30099 ft | 464 kts | 46° |
| 2026-05-07 11:16 | 45.50769 | -4.65276 | 30385 ft | 463 kts | 46° |
| 2026-05-07 11:16 | 45.53013 | -4.62060 | 30654 ft | 463 kts | 46° |
| 2026-05-07 11:16 | 45.55287 | -4.58807 | 30932 ft | 463 kts | 46° |
| 2026-05-07 11:17 | 45.57571 | -4.55550 | 31217 ft | 463 kts | 46° |
| 2026-05-07 11:17 | 45.59845 | -4.52302 | 31503 ft | 463 kts | 46° |
| 2026-05-07 11:17 | 45.62117 | -4.49049 | 31792 ft | 462 kts | 46° |
| 2026-05-07 11:17 | 45.64388 | -4.45792 | 31983 ft | 463 kts | 46° |
| 2026-05-07 11:18 | 45.68968 | -4.39203 | 32016 ft | 472 kts | 46° |
| 2026-05-07 11:18 | 45.73636 | -4.32466 | 32017 ft | 481 kts | 46° |
| 2026-05-07 11:19 | 45.78361 | -4.25618 | 32018 ft | 486 kts | 46° |
| 2026-05-07 11:19 | 45.83135 | -4.18706 | 32020 ft | 489 kts | 46° |
| 2026-05-07 11:20 | 45.87934 | -4.11747 | 32023 ft | 491 kts | 46° |
| 2026-05-07 11:20 | 45.92726 | -4.04767 | 32020 ft | 491 kts | 46° |
| 2026-05-07 11:21 | 45.97506 | -3.97772 | 32022 ft | 491 kts | 46° |
| 2026-05-07 11:21 | 46.02301 | -3.90758 | 32022 ft | 491 kts | 46° |
| 2026-05-07 11:22 | 46.06280 | -3.84915 | 32027 ft | 492 kts | 46° |
| 2026-05-07 11:22 | 46.11847 | -3.76719 | 32028 ft | 492 kts | 46° |
| 2026-05-07 11:23 | 46.15856 | -3.70801 | 32027 ft | 492 kts | 46° |
| 2026-05-07 11:23 | 46.20603 | -3.63787 | 32027 ft | 492 kts | 46° |
| 2026-05-07 11:24 | 46.25402 | -3.56658 | 32025 ft | 492 kts | 46° |
| 2026-05-07 11:24 | 46.30147 | -3.49595 | 32030 ft | 493 kts | 46° |
| 2026-05-07 11:25 | 46.34916 | -3.42477 | 32029 ft | 493 kts | 46° |
| 2026-05-07 11:25 | 46.39690 | -3.35339 | 32030 ft | 493 kts | 46° |
| 2026-05-07 11:26 | 46.44459 | -3.28189 | 32032 ft | 493 kts | 47° |
| 2026-05-07 11:26 | 46.49210 | -3.21035 | 32024 ft | 493 kts | 46° |
| 2026-05-07 11:27 | 46.53956 | -3.13833 | 31961 ft | 491 kts | 49° |
| 2026-05-07 11:27 | 46.56005 | -3.09922 | 31738 ft | 485 kts | 58° |
| 2026-05-07 11:27 | 46.57660 | -3.05655 | 30581 ft | 487 kts | 67° |
| 2026-05-07 11:28 | 46.58813 | -3.01035 | 29602 ft | 483 kts | 74° |
| 2026-05-07 11:28 | 46.59816 | -2.96392 | 28518 ft | 481 kts | 74° |
| 2026-05-07 11:28 | 46.60838 | -2.91751 | 27569 ft | 482 kts | 73° |
| 2026-05-07 11:28 | 46.61877 | -2.87112 | 26888 ft | 484 kts | 73° |
| 2026-05-07 11:29 | 46.62925 | -2.82466 | 26155 ft | 481 kts | 73° |
| 2026-05-07 11:29 | 46.63947 | -2.77928 | 25468 ft | 477 kts | 73° |
| 2026-05-07 11:29 | 46.64971 | -2.73366 | 24771 ft | 472 kts | 73° |
| 2026-05-07 11:29 | 46.65977 | -2.68848 | 24091 ft | 466 kts | 74° |
| 2026-05-07 11:30 | 46.66968 | -2.64380 | 23387 ft | 462 kts | 74° |
| 2026-05-07 11:30 | 46.67947 | -2.59954 | 22703 ft | 457 kts | 74° |
| 2026-05-07 11:30 | 46.68912 | -2.55569 | 22084 ft | 453 kts | 74° |
| 2026-05-07 11:30 | 46.69867 | -2.51219 | 21487 ft | 449 kts | 74° |
| 2026-05-07 11:31 | 46.70810 | -2.46909 | 20899 ft | 445 kts | 74° |
| 2026-05-07 11:31 | 46.71803 | -2.42655 | 20327 ft | 442 kts | 69° |
| 2026-05-07 11:31 | 46.73214 | -2.38693 | 19787 ft | 441 kts | 58° |
| 2026-05-07 11:31 | 46.75058 | -2.35151 | 19225 ft | 432 kts | 51° |
| 2026-05-07 11:32 | 46.78800 | -2.28548 | 18154 ft | 418 kts | 52° |
| 2026-05-07 11:32 | 46.80636 | -2.25285 | 17589 ft | 414 kts | 52° |
| 2026-05-07 11:32 | 46.82451 | -2.22040 | 17071 ft | 410 kts | 52° |
| 2026-05-07 11:33 | 46.84243 | -2.18829 | 16555 ft | 406 kts | 52° |
| 2026-05-07 11:33 | 46.86013 | -2.15648 | 16047 ft | 402 kts | 52° |
| 2026-05-07 11:33 | 46.87770 | -2.12488 | 15541 ft | 399 kts | 52° |
| 2026-05-07 11:33 | 46.89560 | -2.09423 | 15107 ft | 394 kts | 46° |
| 2026-05-07 11:34 | 46.91608 | -2.06752 | 14419 ft | 398 kts | 40° |
| 2026-05-07 11:34 | 46.93754 | -2.04167 | 13741 ft | 400 kts | 39° |
| 2026-05-07 11:34 | 46.95906 | -2.01585 | 13060 ft | 400 kts | 39° |
| 2026-05-07 11:34 | 46.98052 | -1.99009 | 12415 ft | 397 kts | 39° |
| 2026-05-07 11:35 | 47.00180 | -1.96446 | 11765 ft | 394 kts | 39° |
| 2026-05-07 11:35 | 47.02291 | -1.93894 | 11130 ft | 391 kts | 39° |
| 2026-05-07 11:35 | 47.04373 | -1.91370 | 10792 ft | 380 kts | 39° |
| 2026-05-07 11:35 | 47.06364 | -1.88949 | 10665 ft | 364 kts | 39° |
| 2026-05-07 11:36 | 47.08248 | -1.86657 | 10544 ft | 349 kts | 39° |
| 2026-05-07 11:36 | 47.10103 | -1.84401 | 10422 ft | 335 kts | 39° |
| 2026-05-07 11:36 | 47.11867 | -1.82256 | 10309 ft | 323 kts | 39° |
| 2026-05-07 11:36 | 47.13540 | -1.80221 | 10190 ft | 311 kts | 39° |
| 2026-05-07 11:37 | 47.15204 | -1.78192 | 9994 ft | 303 kts | 39° |
| 2026-05-07 11:37 | 47.16793 | -1.76254 | 9720 ft | 298 kts | 39° |
| 2026-05-07 11:37 | 47.18379 | -1.74319 | 9374 ft | 295 kts | 40° |
| 2026-05-07 11:37 | 47.19955 | -1.72396 | 8994 ft | 293 kts | 40° |
| 2026-05-07 11:38 | 47.21516 | -1.70489 | 8644 ft | 290 kts | 40° |
| 2026-05-07 11:38 | 47.23063 | -1.68596 | 8236 ft | 290 kts | 40° |
| 2026-05-07 11:38 | 47.24614 | -1.66692 | 7777 ft | 291 kts | 40° |
| 2026-05-07 11:38 | 47.26173 | -1.64779 | 7313 ft | 292 kts | 41° |
| 2026-05-07 11:39 | 47.27735 | -1.62864 | 6847 ft | 292 kts | 41° |
| 2026-05-07 11:39 | 47.29294 | -1.60951 | 6431 ft | 292 kts | 41° |
| 2026-05-07 11:39 | 47.30822 | -1.59073 | 6294 ft | 280 kts | 41° |
| 2026-05-07 11:39 | 47.32290 | -1.57265 | 6105 ft | 271 kts | 41° |
| 2026-05-07 11:40 | 47.33747 | -1.55469 | 5704 ft | 272 kts | 42° |
| 2026-05-07 11:40 | 47.35182 | -1.53705 | 5536 ft | 264 kts | 42° |
| 2026-05-07 11:40 | 47.36444 | -1.51854 | 5403 ft | 248 kts | 62° |
| 2026-05-07 11:40 | 47.36889 | -1.49534 | 5287 ft | 229 kts | 95° |
| 2026-05-07 11:41 | 47.36451 | -1.47348 | 4976 ft | 222 kts | 126° |
| 2026-05-07 11:41 | 47.35481 | -1.45610 | 4699 ft | 218 kts | 131° |
| 2026-05-07 11:41 | 47.34502 | -1.43918 | 4409 ft | 215 kts | 131° |
| 2026-05-07 11:41 | 47.33373 | -1.42519 | 4146 ft | 212 kts | 158° |
| 2026-05-07 11:42 | 47.31924 | -1.42281 | 3890 ft | 213 kts | 192° |
| 2026-05-07 11:42 | 47.30627 | -1.43322 | 3658 ft | 217 kts | 219° |
| 2026-05-07 11:42 | 47.29503 | -1.44806 | 3449 ft | 214 kts | 218° |
| 2026-05-07 11:42 | 47.28367 | -1.46220 | 3176 ft | 216 kts | 217° |
| 2026-05-07 11:43 | 47.27211 | -1.47635 | 2892 ft | 216 kts | 217° |
| 2026-05-07 11:43 | 47.26068 | -1.49031 | 2568 ft | 216 kts | 217° |
| 2026-05-07 11:43 | 47.24898 | -1.50459 | 2293 ft | 213 kts | 217° |
| 2026-05-07 11:43 | 47.23812 | -1.51794 | 2039 ft | 199 kts | 217° |
| 2026-05-07 11:44 | 47.22786 | -1.53058 | 1748 ft | 187 kts | 218° |
| 2026-05-07 11:44 | 47.21817 | -1.54252 | 1480 ft | 175 kts | 217° |
| 2026-05-07 11:44 | 47.20923 | -1.55360 | 1260 ft | 161 kts | 216° |
| 2026-05-07 11:44 | 47.20118 | -1.56447 | 1071 ft | 154 kts | 218° |
| 2026-05-07 11:45 | 47.19326 | -1.57492 | 796 ft | 150 kts | 219° |
| 2026-05-07 11:45 | 47.18520 | -1.58457 | 626 ft | 148 kts | 212° |
| 2026-05-07 11:45 | 47.17660 | -1.59289 | 403 ft | 146 kts | 207° |
| 2026-05-07 11:45 | 47.16754 | -1.59989 | 210 ft | 147 kts | 205° |
| 2026-05-07 11:46 | 47.15854 | -1.60665 | 91 ft | 137 kts | 206° |
| 2026-05-07 11:46 | 47.15173 | -1.61181 | 88 ft | 70 kts | 207° |
| 2026-05-07 11:46 | 47.14951 | -1.61350 | 86 ft | 24 kts | 208° |
| 2026-05-07 11:46 | 47.14822 | -1.61344 | 90 ft | 20 kts | 106° |
| 2026-05-07 11:47 | 47.14852 | -1.61168 | 90 ft | 17 kts | 51° |
| 2026-05-07 11:47 | 47.14959 | -1.61077 | 91 ft | 19 kts | 27° |
| 2026-05-07 11:47 | 47.15081 | -1.60984 | 92 ft | 20 kts | 27° |
| 2026-05-07 11:47 | 47.15204 | -1.60892 | 89 ft | 20 kts | 26° |
| 2026-05-07 11:48 | 47.15332 | -1.60795 | 93 ft | 21 kts | 28° |
| 2026-05-07 11:48 | 47.15456 | -1.60699 | 92 ft | 16 kts | 27° |
| 2026-05-07 11:48 | 47.15552 | -1.60625 | 93 ft | 15 kts | 28° |
| 2026-05-07 11:48 | 47.15648 | -1.60553 | 93 ft | 16 kts | 27° |
| 2026-05-07 11:49 | 47.15722 | -1.60463 | 90 ft | 13 kts | 80° |
| 2026-05-07 11:49 | 47.15667 | -1.60353 | 90 ft | 15 kts | 138° |
| 2026-05-07 11:49 | 47.15611 | -1.60261 | 90 ft | 8 kts | 99° |
| 2026-05-07 11:49 | 47.15629 | -1.60200 | 91 ft | 6 kts | 58° |
| 2026-05-07 11:50 | 47.15644 | -1.60164 | 90 ft | 2 kts | 58° |
| 2026-05-07 11:50 | 47.15646 | -1.60159 | 90 ft | 0 kts | 57° |